createdAt,value
2018-06-17T00:00:42.526Z,73.79
2018-06-17T00:03:09.823Z,73.53
2018-06-17T00:05:38.204Z,73.30
2018-06-17T00:08:05.781Z,74.02
2018-06-17T00:10:33.148Z,72.93
2018-06-17T00:13:00.465Z,72.76
2018-06-17T00:15:28.486Z,72.92
2018-06-17T00:17:55.845Z,73.82
2018-06-17T00:20:23.196Z,73.32
2018-06-17T00:22:50.488Z,73.16
2018-06-17T00:25:17.763Z,73.54
2018-06-17T00:27:45.121Z,73.49
2018-06-17T00:30:12.467Z,74.15
2018-06-17T00:32:39.983Z,74.17
2018-06-17T00:35:07.298Z,74.94
2018-06-17T00:37:38.127Z,74.58
2018-06-17T00:40:05.414Z,75.32
2018-06-17T00:42:33.345Z,75.08
2018-06-17T00:47:32.964Z,75.24
2018-06-17T00:50:00.259Z,75.35
2018-06-17T00:52:27.561Z,75.50
2018-06-17T00:54:54.971Z,74.85
2018-06-17T00:57:33.927Z,75.09
2018-06-17T01:00:01.260Z,74.85
2018-06-17T01:02:28.571Z,75.23
2018-06-17T01:04:55.899Z,75.92
2018-06-17T01:07:29.191Z,75.90
2018-06-17T01:09:56.485Z,75.84
2018-06-17T01:12:23.751Z,75.64
2018-06-17T01:14:51.256Z,75.13
2018-06-17T01:17:18.600Z,75.32
2018-06-17T01:19:45.889Z,75.34
2018-06-17T01:22:13.257Z,74.45
2018-06-17T01:24:40.597Z,74.32
2018-06-17T01:27:07.894Z,73.90
2018-06-17T01:29:35.226Z,74.47
2018-06-17T01:32:02.531Z,73.64
2018-06-17T01:34:30.090Z,74.19
2018-06-17T01:36:57.384Z,73.68
2018-06-17T01:39:24.801Z,73.58
2018-06-17T01:41:52.123Z,73.29
2018-06-17T01:44:19.392Z,73.25
2018-06-17T01:46:46.708Z,73.68
2018-06-17T01:49:13.983Z,73.73
2018-06-17T01:51:41.291Z,72.35
2018-06-17T01:54:08.600Z,73.04
2018-06-17T01:56:36.166Z,72.18
2018-06-17T01:59:03.557Z,72.66
2018-06-17T02:01:30.880Z,73.01
2018-06-17T02:04:03.903Z,73.13
2018-06-17T02:06:37.718Z,73.08
2018-06-17T02:09:12.323Z,72.89
2018-06-17T02:11:43.114Z,73.59
2018-06-17T02:14:15.976Z,74.17
2018-06-17T02:16:43.438Z,73.63
2018-06-17T02:19:11.690Z,72.58
2018-06-17T02:21:39.216Z,72.69
2018-06-17T02:24:07.239Z,72.77
2018-06-17T02:26:34.674Z,72.69
2018-06-17T02:29:02.029Z,72.78
2018-06-17T02:31:29.415Z,72.76
2018-06-17T02:34:03.433Z,70.69
2018-06-17T02:36:32.865Z,69.87
2018-06-17T02:39:05.356Z,68.51
2018-06-17T02:41:32.891Z,67.43
2018-06-17T02:44:00.174Z,68.44
2018-06-17T02:46:33.384Z,67.87
2018-06-17T02:49:06.396Z,68.06
2018-06-17T02:51:39.421Z,67.77
2018-06-17T02:54:13.886Z,67.04
2018-06-17T02:56:41.168Z,67.55
2018-06-17T02:59:08.571Z,67.39
2018-06-17T03:01:35.863Z,66.89
2018-06-17T03:04:04.890Z,67.11
2018-06-17T03:06:32.321Z,67.17
2018-06-17T03:08:59.675Z,66.74
2018-06-17T03:11:27.205Z,67.51
2018-06-17T03:13:55.698Z,67.38
2018-06-17T03:16:23.008Z,67.17
2018-06-17T03:18:50.381Z,67.01
2018-06-17T03:21:18.121Z,67.70
2018-06-17T03:23:45.750Z,68.06
2018-06-17T03:26:18.769Z,69.18
2018-06-17T03:28:51.709Z,70.06
2018-06-17T03:31:19.821Z,69.76
2018-06-17T03:33:52.152Z,69.96
2018-06-17T03:36:20.645Z,71.24
2018-06-17T03:38:48.053Z,72.15
2018-06-17T03:41:15.305Z,71.55
2018-06-17T03:43:42.561Z,72.20
2018-06-17T03:46:09.900Z,72.71
2018-06-17T03:48:37.164Z,72.76
2018-06-17T03:51:04.498Z,72.50
2018-06-17T03:53:32.021Z,72.07
2018-06-17T03:55:59.299Z,72.25
2018-06-17T03:58:26.784Z,72.60
2018-06-17T04:00:54.172Z,72.55
2018-06-17T04:03:21.568Z,72.57
2018-06-17T04:05:48.820Z,73.18
2018-06-17T04:08:30.166Z,74.36
2018-06-17T04:10:57.444Z,76.91
2018-06-17T04:13:24.797Z,76.54
2018-06-17T04:15:52.118Z,77.72
2018-06-17T04:18:19.435Z,78.15
2018-06-17T04:20:46.763Z,78.68
2018-06-17T04:23:14.095Z,78.97
2018-06-17T04:25:41.556Z,80.31
2018-06-17T04:28:08.779Z,80.09
2018-06-17T04:30:36.068Z,79.74
2018-06-17T04:33:03.348Z,79.52
2018-06-17T04:35:30.649Z,81.15
2018-06-17T04:37:57.923Z,80.42
2018-06-17T04:40:25.184Z,82.60
2018-06-17T04:42:52.413Z,81.13
2018-06-17T04:45:19.645Z,81.91
2018-06-17T04:47:46.950Z,82.93
2018-06-17T04:50:14.187Z,81.74
2018-06-17T04:52:41.493Z,81.11
2018-06-17T04:55:08.775Z,80.92
2018-06-17T04:57:35.980Z,81.10
2018-06-17T05:00:03.453Z,81.78
2018-06-17T05:02:30.703Z,81.43
2018-06-17T05:04:57.949Z,81.85
2018-06-17T05:07:25.259Z,81.42
2018-06-17T05:09:52.574Z,81.76
2018-06-17T05:12:19.871Z,81.33
2018-06-17T05:14:49.276Z,80.65
2018-06-17T05:17:16.690Z,80.71
2018-06-17T05:19:43.909Z,80.05
2018-06-17T05:22:11.209Z,79.60
2018-06-17T05:24:38.500Z,79.09
2018-06-17T05:27:05.773Z,79.14
2018-06-17T05:29:33.093Z,78.15
2018-06-17T05:32:00.373Z,76.52
2018-06-17T05:34:27.571Z,76.88
2018-06-17T05:36:54.796Z,78.32
2018-06-17T05:39:22.111Z,79.80
2018-06-17T05:41:49.379Z,77.26
2018-06-17T05:44:16.758Z,78.04
2018-06-17T05:46:44.051Z,76.19
2018-06-17T05:49:11.326Z,74.96
2018-06-17T05:51:38.579Z,74.92
2018-06-17T05:54:05.798Z,74.75
2018-06-17T05:56:33.151Z,73.44
2018-06-17T05:59:00.634Z,73.33
2018-06-17T06:01:28.052Z,73.56
2018-06-17T06:03:55.542Z,71.07
2018-06-17T06:06:22.878Z,75.65
2018-06-17T06:08:50.173Z,71.88
2018-06-17T06:11:17.477Z,72.24
2018-06-17T06:13:44.770Z,72.04
2018-06-17T06:16:12.128Z,68.18
2018-06-17T06:18:39.425Z,70.46
2018-06-17T06:21:06.740Z,67.81
2018-06-17T06:23:34.015Z,67.12
2018-06-17T06:26:01.396Z,64.30
2018-06-17T06:28:28.619Z,65.73
2018-06-17T06:30:55.960Z,65.02
2018-06-17T06:33:23.279Z,63.88
2018-06-17T06:35:50.533Z,61.90
2018-06-17T06:38:17.825Z,62.01
2018-06-17T06:40:45.144Z,60.81
2018-06-17T06:43:12.400Z,61.54
2018-06-17T06:45:39.835Z,59.23
2018-06-17T06:48:07.199Z,59.07
2018-06-17T06:50:39.928Z,59.76
2018-06-17T06:53:07.257Z,60.10
2018-06-17T06:55:34.602Z,58.62
2018-06-17T06:58:01.959Z,58.36
2018-06-17T07:00:29.427Z,58.61
2018-06-17T07:03:08.041Z,58.41
2018-06-17T07:05:47.036Z,59.34
2018-06-17T07:08:25.941Z,57.94
2018-06-17T07:10:54.102Z,55.61
2018-06-17T07:13:21.413Z,56.07
2018-06-17T07:16:00.328Z,55.64
2018-06-17T07:18:34.286Z,55.87
2018-06-17T07:21:01.630Z,54.83
2018-06-17T07:23:29.171Z,52.57
2018-06-17T07:26:40.513Z,54.34
2018-06-17T07:29:20.121Z,52.69
2018-06-17T07:31:47.433Z,53.44
2018-06-17T07:34:15.387Z,51.86
2018-06-17T07:36:42.916Z,50.73
2018-06-17T07:40:24.409Z,50.58
2018-06-17T07:42:51.708Z,49.45
2018-06-17T07:45:19.075Z,48.69
2018-06-17T07:47:48.361Z,49.16
2018-06-17T07:50:27.281Z,47.19
2018-06-17T07:53:06.122Z,48.47
2018-06-17T07:55:33.510Z,49.77
2018-06-17T07:58:00.803Z,49.53
2018-06-17T08:00:28.224Z,49.71
2018-06-17T08:02:55.589Z,50.68
2018-06-17T08:05:22.919Z,51.01
2018-06-17T08:07:50.554Z,51.78
2018-06-17T08:10:17.895Z,51.63
2018-06-17T08:12:45.269Z,52.04
2018-06-17T08:15:16.346Z,49.83
2018-06-17T08:17:43.760Z,49.21
2018-06-17T08:20:11.095Z,48.71
2018-06-17T08:22:38.389Z,49.35
2018-06-17T08:25:05.961Z,48.72
2018-06-17T08:27:33.321Z,48.74
2018-06-17T08:30:04.026Z,47.06
2018-06-17T08:32:36.555Z,47.57
2018-06-17T08:35:04.205Z,48.18
2018-06-17T08:37:31.713Z,47.75
2018-06-17T08:39:59.117Z,47.13
2018-06-17T08:42:26.359Z,46.62
2018-06-17T08:44:53.726Z,47.01
2018-06-17T08:47:21.049Z,45.98
2018-06-17T08:49:48.427Z,45.81
2018-06-17T08:52:15.793Z,48.36
2018-06-17T08:54:43.152Z,48.04
2018-06-17T08:57:10.536Z,49.87
2018-06-17T08:59:37.902Z,49.65
2018-06-17T09:02:05.232Z,51.19
2018-06-17T09:04:32.533Z,48.70
2018-06-17T09:06:59.961Z,45.97
2018-06-17T09:09:38.790Z,44.90
2018-06-17T09:12:06.986Z,44.60
2018-06-17T09:14:34.301Z,44.26
2018-06-17T09:17:01.681Z,44.80
2018-06-17T09:19:29.033Z,44.02
2018-06-17T09:21:56.395Z,44.84
2018-06-17T09:24:23.787Z,46.49
2018-06-17T09:26:51.343Z,45.03
2018-06-17T09:29:18.764Z,47.04
2018-06-17T09:31:46.234Z,46.72
2018-06-17T09:34:14.916Z,46.88
2018-06-17T09:36:42.317Z,48.15
2018-06-17T09:39:10.222Z,46.80
2018-06-17T09:41:37.588Z,46.62
2018-06-17T09:44:06.444Z,43.66
2018-06-17T09:46:34.570Z,42.80
2018-06-17T09:49:16.461Z,42.83
2018-06-17T09:51:44.358Z,41.24
2018-06-17T09:54:11.696Z,42.35
2018-06-17T09:56:39.082Z,41.61
2018-06-17T09:59:06.613Z,42.49
2018-06-17T10:01:34.689Z,44.60
2018-06-17T10:04:11.035Z,43.56
2018-06-17T10:06:38.385Z,42.05
2018-06-17T10:09:08.198Z,42.86
2018-06-17T10:11:35.555Z,43.16
2018-06-17T10:14:04.024Z,45.21
2018-06-17T10:16:31.566Z,44.69
2018-06-17T10:18:58.892Z,44.52
2018-06-17T10:21:26.618Z,44.95
2018-06-17T10:23:54.074Z,44.38
2018-06-17T10:26:21.403Z,45.04
2018-06-17T10:28:48.767Z,45.07
2018-06-17T10:31:16.445Z,42.76
2018-06-17T10:33:44.575Z,43.49
2018-06-17T10:36:15.236Z,44.26
2018-06-17T10:38:45.411Z,42.43
2018-06-17T10:41:12.941Z,44.95
2018-06-17T10:43:40.278Z,42.90
2018-06-17T10:46:08.188Z,42.29
2018-06-17T10:48:35.552Z,44.11
2018-06-17T10:51:02.974Z,44.12
2018-06-17T10:53:30.437Z,44.07
2018-06-17T10:55:57.928Z,44.51
2018-06-17T10:58:25.178Z,43.78
2018-06-17T11:00:52.442Z,45.28
2018-06-17T11:03:30.628Z,43.00
2018-06-17T11:05:57.965Z,43.96
2018-06-17T11:08:25.280Z,44.39
2018-06-17T11:10:52.579Z,44.00
2018-06-17T11:13:19.890Z,45.78
2018-06-17T11:15:47.176Z,46.22
2018-06-17T11:18:14.526Z,44.91
2018-06-17T11:20:41.783Z,45.52
2018-06-17T11:23:09.104Z,45.09
2018-06-17T11:25:36.470Z,44.11
2018-06-17T11:28:03.902Z,44.31
2018-06-17T11:30:31.276Z,44.68
2018-06-17T11:32:58.745Z,43.31
2018-06-17T11:35:44.798Z,44.67
2018-06-17T11:38:12.283Z,44.90
2018-06-17T11:40:39.738Z,46.10
2018-06-17T11:43:07.001Z,46.78
2018-06-17T11:45:34.348Z,46.85
2018-06-17T11:48:01.658Z,49.34
2018-06-17T11:50:29.051Z,47.13
2018-06-17T11:52:56.354Z,47.89
2018-06-17T11:55:23.692Z,48.10
2018-06-17T11:57:51.080Z,50.12
2018-06-17T12:00:18.516Z,50.95
2018-06-17T12:02:45.864Z,50.17
2018-06-17T12:05:13.236Z,50.70
2018-06-17T12:07:40.590Z,50.96
2018-06-17T12:10:07.964Z,52.24
2018-06-17T12:12:35.358Z,50.97
2018-06-17T12:15:04.266Z,50.48
2018-06-17T12:17:31.653Z,51.60
2018-06-17T12:19:59.063Z,51.11
2018-06-17T12:22:26.443Z,50.90
2018-06-17T12:24:53.712Z,50.36
2018-06-17T12:27:20.992Z,48.10
2018-06-17T12:29:48.383Z,46.46
2018-06-17T12:32:15.729Z,45.34
2018-06-17T12:34:42.960Z,44.75
2018-06-17T12:37:10.356Z,44.86
2018-06-17T12:39:37.862Z,46.56
2018-06-17T12:42:05.191Z,46.74
2018-06-17T12:44:32.488Z,45.16
2018-06-17T12:46:59.891Z,46.30
2018-06-17T12:49:27.233Z,44.31
2018-06-17T12:51:54.581Z,43.49
2018-06-17T12:54:21.949Z,43.10
2018-06-17T12:56:49.294Z,42.02
2018-06-17T12:59:16.752Z,39.51
2018-06-17T13:01:43.971Z,38.81
2018-06-17T13:04:11.314Z,39.79
2018-06-17T13:06:41.382Z,41.01
2018-06-17T13:09:10.446Z,42.35
2018-06-17T13:11:37.845Z,42.52
2018-06-17T13:14:05.210Z,43.05
2018-06-17T13:16:32.574Z,43.62
2018-06-17T13:19:02.239Z,42.82
2018-06-17T13:21:29.499Z,44.22
2018-06-17T13:23:58.565Z,42.44
2018-06-17T13:26:25.856Z,43.48
2018-06-17T13:28:53.299Z,43.76
2018-06-17T13:31:20.697Z,44.90
2018-06-17T13:33:48.143Z,43.15
2018-06-17T13:36:15.483Z,44.55
2018-06-17T13:38:42.848Z,45.08
2018-06-17T13:41:10.214Z,45.06
2018-06-17T13:43:37.618Z,47.33
2018-06-17T13:46:05.074Z,46.32
2018-06-17T13:48:32.399Z,44.77
2018-06-17T13:50:59.883Z,42.55
2018-06-17T13:53:27.239Z,44.03
2018-06-17T13:55:54.658Z,43.64
2018-06-17T13:58:22.305Z,43.41
2018-06-17T14:00:50.880Z,43.67
2018-06-17T14:03:20.782Z,43.66
2018-06-17T14:05:48.133Z,43.29
2018-06-17T14:08:17.347Z,43.05
2018-06-17T14:10:44.757Z,43.02
2018-06-17T14:13:12.133Z,43.62
2018-06-17T14:15:39.501Z,43.54
2018-06-17T14:18:06.966Z,43.35
2018-06-17T14:20:34.333Z,43.25
2018-06-17T14:23:01.859Z,44.42
2018-06-17T14:25:29.401Z,44.89
2018-06-17T14:27:57.241Z,45.40
2018-06-17T14:30:24.659Z,45.50
2018-06-17T14:32:52.091Z,46.78
2018-06-17T14:35:20.109Z,47.51
2018-06-17T14:37:51.786Z,47.15
2018-06-17T14:40:19.593Z,47.08
2018-06-17T14:42:52.554Z,47.48
2018-06-17T14:45:25.473Z,47.67
2018-06-17T14:47:58.597Z,48.11
2018-06-17T14:50:39.970Z,47.39
2018-06-17T14:53:19.906Z,47.93
2018-06-17T14:55:48.097Z,47.41
2018-06-17T14:58:15.509Z,47.69
2018-06-17T15:00:42.933Z,46.77
2018-06-17T15:03:10.262Z,47.42
2018-06-17T15:05:37.641Z,47.90
2018-06-17T15:08:05.011Z,47.83
2018-06-17T15:10:32.423Z,47.45
2018-06-17T15:12:59.922Z,49.07
2018-06-17T15:15:27.295Z,47.94
2018-06-17T15:17:54.679Z,48.41
2018-06-17T15:20:22.003Z,49.33
2018-06-17T15:22:49.385Z,49.90
2018-06-17T15:25:16.812Z,49.67
2018-06-17T15:27:44.088Z,48.94
2018-06-17T15:30:13.931Z,49.51
2018-06-17T15:32:46.974Z,51.06
2018-06-17T15:35:19.996Z,49.80
2018-06-17T15:37:53.023Z,50.91
2018-06-17T15:40:24.923Z,50.03
2018-06-17T15:42:52.290Z,49.74
2018-06-17T15:45:19.684Z,50.77
2018-06-17T15:47:47.149Z,48.98
2018-06-17T15:50:14.555Z,48.72
2018-06-17T15:52:41.958Z,49.69
2018-06-17T15:55:09.444Z,48.75
2018-06-17T15:57:36.808Z,48.63
2018-06-17T16:00:06.708Z,49.30
2018-06-17T16:02:34.405Z,49.03
2018-06-17T16:05:01.676Z,48.71
2018-06-17T16:07:29.044Z,49.44
2018-06-17T16:09:56.369Z,49.92
2018-06-17T16:12:29.400Z,51.40
2018-06-17T16:15:02.987Z,51.73
2018-06-17T16:17:35.982Z,51.93
2018-06-17T16:20:09.112Z,51.37
2018-06-17T16:22:36.579Z,51.57
2018-06-17T16:25:03.967Z,51.03
2018-06-17T16:27:31.348Z,51.12
2018-06-17T16:29:58.741Z,51.05
2018-06-17T16:32:26.004Z,51.07
2018-06-17T16:34:53.429Z,50.63
2018-06-17T16:37:20.774Z,51.21
2018-06-17T16:39:48.067Z,50.25
2018-06-17T16:42:15.445Z,50.37
2018-06-17T16:44:42.764Z,50.96
2018-06-17T16:47:10.070Z,50.97
2018-06-17T16:49:37.491Z,50.76
2018-06-17T16:52:10.537Z,51.30
2018-06-17T16:54:43.483Z,50.73
2018-06-17T16:57:19.566Z,51.88
2018-06-17T16:59:56.733Z,50.69
2018-06-17T17:02:24.105Z,51.51
2018-06-17T17:04:51.467Z,51.28
2018-06-17T17:07:18.907Z,51.51
2018-06-17T17:09:46.186Z,51.30
2018-06-17T17:12:20.677Z,51.70
2018-06-17T17:14:49.165Z,52.26
2018-06-17T17:17:23.545Z,52.50
2018-06-17T17:19:51.034Z,52.85
2018-06-17T17:22:18.349Z,52.77
2018-06-17T17:24:45.686Z,52.06
2018-06-17T17:27:13.056Z,52.95
2018-06-17T17:29:41.116Z,52.88
2018-06-17T17:32:14.188Z,53.42
2018-06-17T17:34:48.808Z,52.92
2018-06-17T17:37:21.759Z,53.02
2018-06-17T17:39:54.696Z,52.86
2018-06-17T17:42:22.040Z,53.24
2018-06-17T17:44:55.107Z,53.67
2018-06-17T17:47:25.761Z,55.33
2018-06-17T17:49:53.522Z,54.64
2018-06-17T17:52:20.921Z,55.29
2018-06-17T17:54:54.433Z,55.79
2018-06-17T17:57:21.783Z,55.75
2018-06-17T17:59:50.190Z,55.37
2018-06-17T18:02:17.532Z,56.32
2018-06-17T18:04:44.960Z,55.86
2018-06-17T18:07:13.618Z,55.96
2018-06-17T18:09:40.947Z,55.71
2018-06-17T18:12:08.293Z,56.33
2018-06-17T18:14:35.546Z,56.75
2018-06-17T18:17:02.827Z,57.22
2018-06-17T18:19:33.170Z,57.26
2018-06-17T18:22:00.515Z,57.11
2018-06-17T18:24:27.891Z,57.11
2018-06-17T18:27:01.186Z,57.47
2018-06-17T18:29:34.275Z,58.19
2018-06-17T18:32:14.101Z,57.69
2018-06-17T18:34:47.033Z,57.62
2018-06-17T18:37:14.481Z,58.09
2018-06-17T18:39:41.749Z,58.13
2018-06-17T18:42:09.113Z,57.87
2018-06-17T18:44:36.375Z,57.79
2018-06-17T18:47:03.712Z,57.88
2018-06-17T18:49:30.920Z,58.18
2018-06-17T18:51:58.262Z,57.71
2018-06-17T18:54:25.561Z,58.19
2018-06-17T18:56:52.893Z,58.69
2018-06-17T18:59:20.261Z,58.49
2018-06-17T19:01:47.763Z,58.80
2018-06-17T19:04:14.976Z,59.08
2018-06-17T19:06:42.234Z,58.93
2018-06-17T19:09:15.239Z,58.60
2018-06-17T19:11:48.166Z,59.50
2018-06-17T19:14:21.238Z,59.47
2018-06-17T19:16:54.223Z,59.74
2018-06-17T19:19:24.616Z,59.66
2018-06-17T19:21:51.934Z,59.98
2018-06-17T19:24:21.086Z,59.71
2018-06-17T19:26:48.477Z,59.78
2018-06-17T19:29:16.136Z,60.18
2018-06-17T19:31:43.513Z,60.46
2018-06-17T19:34:10.947Z,60.15
2018-06-17T19:36:38.279Z,60.54
2018-06-17T19:39:09.707Z,60.92
2018-06-17T19:41:37.089Z,60.83
2018-06-17T19:44:04.546Z,60.82
2018-06-17T19:46:31.912Z,61.83
2018-06-17T19:48:59.210Z,61.24
2018-06-17T19:51:32.602Z,61.92
2018-06-17T19:54:05.704Z,61.92
2018-06-17T19:56:38.733Z,62.48
2018-06-17T19:59:11.765Z,62.18
2018-06-17T20:01:39.097Z,62.95
2018-06-17T20:04:06.453Z,63.38
2018-06-17T20:06:33.990Z,62.81
2018-06-17T20:09:01.194Z,63.06
2018-06-17T20:11:28.558Z,63.01
2018-06-17T20:13:55.997Z,63.19
2018-06-17T20:16:23.656Z,63.49
2018-06-17T20:18:51.013Z,64.11
2018-06-17T20:21:18.373Z,63.50
2018-06-17T20:23:45.721Z,63.57
2018-06-17T20:26:13.072Z,64.08
2018-06-17T20:28:40.393Z,64.44
2018-06-17T20:31:07.666Z,64.55
2018-06-17T20:33:43.753Z,64.56
2018-06-17T20:36:17.432Z,64.69
2018-06-17T20:38:50.425Z,64.96
2018-06-17T20:41:23.606Z,64.71
2018-06-17T20:46:24.561Z,64.83
2018-06-17T20:48:52.559Z,65.42
2018-06-17T20:51:24.994Z,64.95
2018-06-17T20:53:52.316Z,64.80
2018-06-17T20:56:19.601Z,65.13
2018-06-17T20:58:48.366Z,65.65
2018-06-17T21:01:15.908Z,66.17
2018-06-17T21:03:43.253Z,65.85
2018-06-17T21:06:10.570Z,65.80
2018-06-17T21:08:37.866Z,66.09
2018-06-17T21:11:05.148Z,66.04
2018-06-17T21:13:34.647Z,66.35
2018-06-17T21:16:02.048Z,66.17
2018-06-17T21:18:35.015Z,66.85
2018-06-17T21:21:07.890Z,67.55
2018-06-17T21:23:40.903Z,67.43
2018-06-17T21:26:13.892Z,67.30
2018-06-17T21:28:41.332Z,66.87
2018-06-17T21:31:08.731Z,66.89
2018-06-17T21:33:36.614Z,67.20
2018-06-17T21:36:04.884Z,67.87
2018-06-17T21:38:32.235Z,67.78
2018-06-17T21:40:59.532Z,67.57
2018-06-17T21:43:27.008Z,67.15
2018-06-17T21:45:54.354Z,67.71
2018-06-17T21:48:21.676Z,67.08
2018-06-17T21:50:48.963Z,67.92
2018-06-17T21:53:16.279Z,68.22
2018-06-17T21:55:43.493Z,67.64
2018-06-17T21:58:14.058Z,68.65
2018-06-17T22:00:41.335Z,67.44
2018-06-17T22:03:08.650Z,67.09
2018-06-17T22:05:35.897Z,67.19
2018-06-17T22:08:08.983Z,67.48
2018-06-17T22:10:41.892Z,67.89
2018-06-17T22:13:09.149Z,67.44
2018-06-17T22:15:42.304Z,67.53
2018-06-17T22:18:09.659Z,67.53
2018-06-17T22:20:36.942Z,68.50
2018-06-17T22:23:04.292Z,68.53
2018-06-17T22:25:31.583Z,68.09
2018-06-17T22:27:58.954Z,68.28
2018-06-17T22:30:26.268Z,68.50
2018-06-17T22:32:53.545Z,69.09
2018-06-17T22:35:23.972Z,69.31
2018-06-17T22:37:51.269Z,68.90
2018-06-17T22:40:20.010Z,69.48
2018-06-17T22:42:50.151Z,69.31
2018-06-17T22:45:17.520Z,69.57
2018-06-17T22:47:51.953Z,69.96
2018-06-17T22:50:19.262Z,69.82
2018-06-17T22:52:58.013Z,69.58
2018-06-17T22:55:25.384Z,70.54
2018-06-17T22:57:58.322Z,69.82
2018-06-17T23:00:31.503Z,69.92
2018-06-17T23:03:04.621Z,70.44
2018-06-17T23:05:37.752Z,70.07
2018-06-17T23:08:10.847Z,70.12
2018-06-17T23:10:38.170Z,70.45
2018-06-17T23:13:05.548Z,69.95
2018-06-17T23:15:32.885Z,69.78
2018-06-17T23:18:00.191Z,69.68
2018-06-17T23:20:27.502Z,70.36
2018-06-17T23:22:54.944Z,69.57
2018-06-17T23:25:22.297Z,70.25
2018-06-17T23:27:49.628Z,70.29
2018-06-17T23:30:16.987Z,70.42
2018-06-17T23:32:44.188Z,70.27
2018-06-17T23:35:11.453Z,70.44
2018-06-17T23:37:38.826Z,70.64
2018-06-17T23:40:06.076Z,69.84
2018-06-17T23:42:33.440Z,70.50
2018-06-17T23:45:00.805Z,70.24
2018-06-17T23:47:33.878Z,70.75
2018-06-17T23:50:07.030Z,70.74
2018-06-17T23:52:40.083Z,70.38
2018-06-17T23:55:18.401Z,70.39
2018-06-17T23:57:45.723Z,70.45
